METAR
Diposting tanggal: 30 November 2018

Pukul :

Isi :

METAR WAGI 200600Z 31012KT 9999 SCT012 33/23 Q1007 NOSIG=